sensor_id;sensor_type;location;lat;lon;timestamp;P1;durP1;ratioP1;P2;durP2;ratioP2
28627;SDS011;15815;46.760;19.604;2023-03-01T00:02:05;32.33;;;21.65;;
28627;SDS011;15815;46.760;19.604;2023-03-01T00:04:31;31.05;;;20.25;;
28627;SDS011;15815;46.760;19.604;2023-03-01T00:06:57;29.60;;;19.92;;
28627;SDS011;15815;46.760;19.604;2023-03-01T00:09:23;30.90;;;19.77;;
28627;SDS011;15815;46.760;19.604;2023-03-01T00:11:48;28.02;;;18.35;;
28627;SDS011;15815;46.760;19.604;2023-03-01T00:14:15;32.05;;;19.55;;
28627;SDS011;15815;46.760;19.604;2023-03-01T00:16:41;30.38;;;20.25;;
28627;SDS011;15815;46.760;19.604;2023-03-01T00:19:11;30.85;;;20.40;;
28627;SDS011;15815;46.760;19.604;2023-03-01T00:21:41;30.50;;;19.67;;
28627;SDS011;15815;46.760;19.604;2023-03-01T00:24:10;29.75;;;20.42;;
28627;SDS011;15815;46.760;19.604;2023-03-01T00:26:36;30.00;;;19.45;;
28627;SDS011;15815;46.760;19.604;2023-03-01T00:29:03;29.23;;;18.58;;
28627;SDS011;15815;46.760;19.604;2023-03-01T00:31:30;28.55;;;19.55;;
28627;SDS011;15815;46.760;19.604;2023-03-01T00:34:01;29.75;;;20.75;;
28627;SDS011;15815;46.760;19.604;2023-03-01T00:36:30;32.25;;;19.73;;
28627;SDS011;15815;46.760;19.604;2023-03-01T00:38:58;30.10;;;18.27;;
28627;SDS011;15815;46.760;19.604;2023-03-01T00:41:26;26.60;;;18.33;;
28627;SDS011;15815;46.760;19.604;2023-03-01T00:43:52;29.13;;;19.33;;
28627;SDS011;15815;46.760;19.604;2023-03-01T00:46:24;29.15;;;19.83;;
28627;SDS011;15815;46.760;19.604;2023-03-01T00:48:55;32.55;;;19.48;;
28627;SDS011;15815;46.760;19.604;2023-03-01T00:51:25;28.10;;;18.75;;
28627;SDS011;15815;46.760;19.604;2023-03-01T00:53:53;31.60;;;21.00;;
28627;SDS011;15815;46.760;19.604;2023-03-01T00:56:20;25.20;;;17.60;;
28627;SDS011;15815;46.760;19.604;2023-03-01T00:58:46;29.58;;;19.75;;
28627;SDS011;15815;46.760;19.604;2023-03-01T01:01:16;29.85;;;19.15;;
28627;SDS011;15815;46.760;19.604;2023-03-01T01:03:49;31.50;;;19.85;;
28627;SDS011;15815;46.760;19.604;2023-03-01T01:06:22;28.90;;;18.73;;
28627;SDS011;15815;46.760;19.604;2023-03-01T01:08:52;34.70;;;20.25;;
28627;SDS011;15815;46.760;19.604;2023-03-01T01:11:19;34.22;;;20.63;;
28627;SDS011;15815;46.760;19.604;2023-03-01T01:13:47;32.47;;;19.75;;
28627;SDS011;15815;46.760;19.604;2023-03-01T01:16:14;29.67;;;20.75;;
28627;SDS011;15815;46.760;19.604;2023-03-01T01:18:42;30.05;;;20.58;;
28627;SDS011;15815;46.760;19.604;2023-03-01T01:21:09;31.88;;;21.38;;
28627;SDS011;15815;46.760;19.604;2023-03-01T01:23:38;32.58;;;21.48;;
28627;SDS011;15815;46.760;19.604;2023-03-01T01:26:14;35.13;;;21.23;;
28627;SDS011;15815;46.760;19.604;2023-03-01T01:28:45;34.72;;;22.73;;
28627;SDS011;15815;46.760;19.604;2023-03-01T01:31:11;35.75;;;22.17;;
28627;SDS011;15815;46.760;19.604;2023-03-01T01:33:37;34.75;;;22.33;;
28627;SDS011;15815;46.760;19.604;2023-03-01T01:36:03;34.28;;;21.83;;
28627;SDS011;15815;46.760;19.604;2023-03-01T01:38:30;32.08;;;21.52;;
28627;SDS011;15815;46.760;19.604;2023-03-01T01:40:57;34.67;;;21.70;;
28627;SDS011;15815;46.760;19.604;2023-03-01T01:43:27;36.08;;;20.95;;
28627;SDS011;15815;46.760;19.604;2023-03-01T01:46:01;34.50;;;21.42;;
28627;SDS011;15815;46.760;19.604;2023-03-01T01:48:42;36.20;;;22.20;;
28627;SDS011;15815;46.760;19.604;2023-03-01T01:51:12;31.77;;;21.98;;
28627;SDS011;15815;46.760;19.604;2023-03-01T01:53:44;32.22;;;21.02;;
28627;SDS011;15815;46.760;19.604;2023-03-01T01:56:12;32.72;;;21.05;;
28627;SDS011;15815;46.760;19.604;2023-03-01T01:58:43;29.92;;;21.40;;
28627;SDS011;15815;46.760;19.604;2023-03-01T02:01:09;30.73;;;20.60;;
28627;SDS011;15815;46.760;19.604;2023-03-01T02:03:37;32.95;;;21.42;;
28627;SDS011;15815;46.760;19.604;2023-03-01T02:06:19;31.30;;;20.17;;
28627;SDS011;15815;46.760;19.604;2023-03-01T02:09:19;29.17;;;19.98;;
28627;SDS011;15815;46.760;19.604;2023-03-01T02:11:48;28.77;;;19.63;;
28627;SDS011;15815;46.760;19.604;2023-03-01T02:14:16;28.17;;;18.85;;
28627;SDS011;15815;46.760;19.604;2023-03-01T02:16:45;27.65;;;19.63;;
28627;SDS011;15815;46.760;19.604;2023-03-01T02:19:13;28.13;;;19.30;;
28627;SDS011;15815;46.760;19.604;2023-03-01T02:27:32;29.55;;;18.95;;
28627;SDS011;15815;46.760;19.604;2023-03-01T02:30:05;28.73;;;19.92;;
28627;SDS011;15815;46.760;19.604;2023-03-01T02:32:31;29.45;;;19.05;;
28627;SDS011;15815;46.760;19.604;2023-03-01T02:34:59;27.95;;;17.30;;
28627;SDS011;15815;46.760;19.604;2023-03-01T02:37:25;30.65;;;18.77;;
28627;SDS011;15815;46.760;19.604;2023-03-01T02:39:54;30.00;;;18.60;;
28627;SDS011;15815;46.760;19.604;2023-03-01T02:42:28;65.63;;;34.80;;
28627;SDS011;15815;46.760;19.604;2023-03-01T02:44:59;97.72;;;51.33;;
28627;SDS011;15815;46.760;19.604;2023-03-01T02:47:24;46.72;;;27.88;;
28627;SDS011;15815;46.760;19.604;2023-03-01T02:49:58;26.63;;;17.42;;
28627;SDS011;15815;46.760;19.604;2023-03-01T02:52:33;29.02;;;17.95;;
28627;SDS011;15815;46.760;19.604;2023-03-01T02:57:45;26.13;;;16.75;;
28627;SDS011;15815;46.760;19.604;2023-03-01T03:00:15;26.98;;;16.30;;
28627;SDS011;15815;46.760;19.604;2023-03-01T03:02:48;23.40;;;16.83;;
28627;SDS011;15815;46.760;19.604;2023-03-01T03:05:20;24.95;;;16.95;;
28627;SDS011;15815;46.760;19.604;2023-03-01T03:07:48;26.33;;;16.73;;
28627;SDS011;15815;46.760;19.604;2023-03-01T03:10:22;26.58;;;16.50;;
28627;SDS011;15815;46.760;19.604;2023-03-01T03:13:01;26.73;;;17.40;;
28627;SDS011;15815;46.760;19.604;2023-03-01T03:15:29;27.35;;;16.27;;
28627;SDS011;15815;46.760;19.604;2023-03-01T03:17:57;23.55;;;15.73;;
28627;SDS011;15815;46.760;19.604;2023-03-01T03:20:25;24.42;;;16.90;;
28627;SDS011;15815;46.760;19.604;2023-03-01T03:22:52;24.65;;;16.70;;
28627;SDS011;15815;46.760;19.604;2023-03-01T03:25:20;24.65;;;16.60;;
28627;SDS011;15815;46.760;19.604;2023-03-01T03:27:47;29.13;;;17.90;;
28627;SDS011;15815;46.760;19.604;2023-03-01T03:30:19;23.60;;;16.33;;
28627;SDS011;15815;46.760;19.604;2023-03-01T03:32:46;26.63;;;17.83;;
28627;SDS011;15815;46.760;19.604;2023-03-01T03:35:12;27.15;;;17.73;;
28627;SDS011;15815;46.760;19.604;2023-03-01T03:40:09;33.65;;;18.80;;
28627;SDS011;15815;46.760;19.604;2023-03-01T03:42:35;31.38;;;18.15;;
28627;SDS011;15815;46.760;19.604;2023-03-01T03:45:01;28.95;;;18.45;;
28627;SDS011;15815;46.760;19.604;2023-03-01T03:47:27;28.10;;;18.70;;
28627;SDS011;15815;46.760;19.604;2023-03-01T03:49:52;26.05;;;17.05;;
28627;SDS011;15815;46.760;19.604;2023-03-01T03:52:19;28.30;;;18.05;;
28627;SDS011;15815;46.760;19.604;2023-03-01T03:54:45;27.52;;;18.83;;
28627;SDS011;15815;46.760;19.604;2023-03-01T03:57:10;28.77;;;18.40;;
28627;SDS011;15815;46.760;19.604;2023-03-01T03:59:36;27.30;;;17.65;;
28627;SDS011;15815;46.760;19.604;2023-03-01T04:02:01;27.42;;;17.55;;
28627;SDS011;15815;46.760;19.604;2023-03-01T04:04:27;29.35;;;19.02;;
28627;SDS011;15815;46.760;19.604;2023-03-01T04:06:55;31.42;;;19.52;;
28627;SDS011;15815;46.760;19.604;2023-03-01T04:09:20;29.15;;;19.00;;
28627;SDS011;15815;46.760;19.604;2023-03-01T04:11:46;32.08;;;19.67;;
28627;SDS011;15815;46.760;19.604;2023-03-01T04:14:11;31.00;;;20.15;;
28627;SDS011;15815;46.760;19.604;2023-03-01T04:16:39;30.05;;;19.02;;
28627;SDS011;15815;46.760;19.604;2023-03-01T04:19:05;32.90;;;20.25;;
28627;SDS011;15815;46.760;19.604;2023-03-01T04:21:31;31.52;;;20.67;;
28627;SDS011;15815;46.760;19.604;2023-03-01T04:23:57;38.50;;;22.05;;
28627;SDS011;15815;46.760;19.604;2023-03-01T04:26:22;40.20;;;23.80;;
28627;SDS011;15815;46.760;19.604;2023-03-01T04:28:48;61.55;;;30.17;;
28627;SDS011;15815;46.760;19.604;2023-03-01T04:31:15;54.55;;;29.60;;
28627;SDS011;15815;46.760;19.604;2023-03-01T04:33:45;41.78;;;23.20;;
28627;SDS011;15815;46.760;19.604;2023-03-01T04:36:12;54.33;;;28.45;;
28627;SDS011;15815;46.760;19.604;2023-03-01T04:38:39;51.28;;;24.73;;
28627;SDS011;15815;46.760;19.604;2023-03-01T04:41:07;42.38;;;24.02;;
28627;SDS011;15815;46.760;19.604;2023-03-01T04:46:05;48.42;;;26.75;;
28627;SDS011;15815;46.760;19.604;2023-03-01T04:48:32;48.72;;;26.20;;
28627;SDS011;15815;46.760;19.604;2023-03-01T04:50:58;31.35;;;19.73;;
28627;SDS011;15815;46.760;19.604;2023-03-01T04:53:25;35.65;;;20.35;;
28627;SDS011;15815;46.760;19.604;2023-03-01T04:55:51;32.95;;;21.73;;
28627;SDS011;15815;46.760;19.604;2023-03-01T04:58:17;32.00;;;20.42;;
28627;SDS011;15815;46.760;19.604;2023-03-01T05:00:42;33.90;;;19.45;;
28627;SDS011;15815;46.760;19.604;2023-03-01T05:03:08;31.80;;;20.60;;
28627;SDS011;15815;46.760;19.604;2023-03-01T05:05:35;33.33;;;22.15;;
28627;SDS011;15815;46.760;19.604;2023-03-01T05:08:03;39.20;;;23.63;;
28627;SDS011;15815;46.760;19.604;2023-03-01T05:10:33;36.33;;;23.42;;
28627;SDS011;15815;46.760;19.604;2023-03-01T05:12:59;40.92;;;24.50;;
28627;SDS011;15815;46.760;19.604;2023-03-01T05:15:25;39.50;;;25.05;;
28627;SDS011;15815;46.760;19.604;2023-03-01T05:17:52;38.75;;;24.45;;
28627;SDS011;15815;46.760;19.604;2023-03-01T05:20:20;42.30;;;26.58;;
28627;SDS011;15815;46.760;19.604;2023-03-01T05:22:54;39.00;;;24.85;;
28627;SDS011;15815;46.760;19.604;2023-03-01T05:25:22;37.80;;;24.95;;
28627;SDS011;15815;46.760;19.604;2023-03-01T05:27:47;37.70;;;23.38;;
28627;SDS011;15815;46.760;19.604;2023-03-01T05:30:13;34.00;;;22.55;;
28627;SDS011;15815;46.760;19.604;2023-03-01T05:32:46;35.28;;;21.75;;
28627;SDS011;15815;46.760;19.604;2023-03-01T05:35:14;33.97;;;22.40;;
28627;SDS011;15815;46.760;19.604;2023-03-01T05:37:44;31.55;;;20.45;;
28627;SDS011;15815;46.760;19.604;2023-03-01T05:40:12;35.80;;;20.50;;
28627;SDS011;15815;46.760;19.604;2023-03-01T05:42:47;30.08;;;19.75;;
28627;SDS011;15815;46.760;19.604;2023-03-01T05:45:15;29.98;;;19.65;;
28627;SDS011;15815;46.760;19.604;2023-03-01T05:47:42;28.80;;;18.90;;
28627;SDS011;15815;46.760;19.604;2023-03-01T05:50:15;29.30;;;20.00;;
28627;SDS011;15815;46.760;19.604;2023-03-01T05:52:47;29.55;;;18.77;;
28627;SDS011;15815;46.760;19.604;2023-03-01T05:55:15;29.00;;;19.83;;
28627;SDS011;15815;46.760;19.604;2023-03-01T05:57:42;32.08;;;19.27;;
28627;SDS011;15815;46.760;19.604;2023-03-01T06:00:08;32.30;;;19.60;;
28627;SDS011;15815;46.760;19.604;2023-03-01T06:02:35;31.65;;;19.90;;
28627;SDS011;15815;46.760;19.604;2023-03-01T06:05:01;32.60;;;19.70;;
28627;SDS011;15815;46.760;19.604;2023-03-01T06:07:27;32.83;;;20.98;;
28627;SDS011;15815;46.760;19.604;2023-03-01T06:09:53;31.05;;;20.33;;
28627;SDS011;15815;46.760;19.604;2023-03-01T06:12:19;29.25;;;19.17;;
28627;SDS011;15815;46.760;19.604;2023-03-01T06:14:45;34.80;;;22.05;;
28627;SDS011;15815;46.760;19.604;2023-03-01T06:17:12;37.53;;;23.10;;
28627;SDS011;15815;46.760;19.604;2023-03-01T06:19:38;29.02;;;19.75;;
28627;SDS011;15815;46.760;19.604;2023-03-01T06:22:03;32.25;;;19.77;;
28627;SDS011;15815;46.760;19.604;2023-03-01T06:24:29;28.10;;;18.63;;
28627;SDS011;15815;46.760;19.604;2023-03-01T06:26:58;30.30;;;19.80;;
28627;SDS011;15815;46.760;19.604;2023-03-01T06:29:24;29.55;;;20.08;;
28627;SDS011;15815;46.760;19.604;2023-03-01T06:31:49;44.97;;;24.00;;
28627;SDS011;15815;46.760;19.604;2023-03-01T06:34:16;33.85;;;20.08;;
28627;SDS011;15815;46.760;19.604;2023-03-01T06:36:41;30.90;;;20.20;;
28627;SDS011;15815;46.760;19.604;2023-03-01T06:39:08;30.83;;;18.83;;
28627;SDS011;15815;46.760;19.604;2023-03-01T06:41:34;36.25;;;21.23;;
28627;SDS011;15815;46.760;19.604;2023-03-01T06:43:59;35.22;;;21.08;;
28627;SDS011;15815;46.760;19.604;2023-03-01T06:46:25;29.23;;;19.52;;
28627;SDS011;15815;46.760;19.604;2023-03-01T06:48:52;32.65;;;20.35;;
28627;SDS011;15815;46.760;19.604;2023-03-01T06:51:17;32.65;;;20.63;;
28627;SDS011;15815;46.760;19.604;2023-03-01T06:53:43;36.90;;;21.65;;
28627;SDS011;15815;46.760;19.604;2023-03-01T06:56:11;32.15;;;20.55;;
28627;SDS011;15815;46.760;19.604;2023-03-01T06:58:37;31.65;;;20.48;;
28627;SDS011;15815;46.760;19.604;2023-03-01T07:01:06;33.03;;;21.45;;
28627;SDS011;15815;46.760;19.604;2023-03-01T07:03:32;34.80;;;21.95;;
28627;SDS011;15815;46.760;19.604;2023-03-01T07:05:58;35.45;;;23.25;;
28627;SDS011;15815;46.760;19.604;2023-03-01T07:08:23;34.03;;;22.35;;
28627;SDS011;15815;46.760;19.604;2023-03-01T07:10:59;34.20;;;22.63;;
28627;SDS011;15815;46.760;19.604;2023-03-01T07:13:25;44.35;;;24.98;;
28627;SDS011;15815;46.760;19.604;2023-03-01T07:15:51;42.33;;;23.05;;
28627;SDS011;15815;46.760;19.604;2023-03-01T07:18:16;35.72;;;22.08;;
28627;SDS011;15815;46.760;19.604;2023-03-01T07:20:42;34.72;;;21.90;;
28627;SDS011;15815;46.760;19.604;2023-03-01T07:23:07;35.40;;;21.80;;
28627;SDS011;15815;46.760;19.604;2023-03-01T07:25:36;36.08;;;24.40;;
28627;SDS011;15815;46.760;19.604;2023-03-01T07:28:01;35.90;;;23.65;;
28627;SDS011;15815;46.760;19.604;2023-03-01T07:30:27;39.35;;;24.48;;
28627;SDS011;15815;46.760;19.604;2023-03-01T07:32:53;35.08;;;22.60;;
28627;SDS011;15815;46.760;19.604;2023-03-01T07:35:20;38.65;;;24.10;;
28627;SDS011;15815;46.760;19.604;2023-03-01T07:40:12;39.20;;;25.73;;
28627;SDS011;15815;46.760;19.604;2023-03-01T07:42:38;36.58;;;22.88;;
28627;SDS011;15815;46.760;19.604;2023-03-01T07:45:04;36.13;;;22.25;;
28627;SDS011;15815;46.760;19.604;2023-03-01T07:47:31;34.05;;;21.90;;
28627;SDS011;15815;46.760;19.604;2023-03-01T07:49:57;33.00;;;20.80;;
28627;SDS011;15815;46.760;19.604;2023-03-01T07:52:23;36.30;;;22.58;;
28627;SDS011;15815;46.760;19.604;2023-03-01T07:54:49;36.25;;;23.25;;
28627;SDS011;15815;46.760;19.604;2023-03-01T07:57:17;31.75;;;19.67;;
28627;SDS011;15815;46.760;19.604;2023-03-01T07:59:43;32.00;;;20.45;;
28627;SDS011;15815;46.760;19.604;2023-03-01T08:02:09;33.90;;;19.98;;
28627;SDS011;15815;46.760;19.604;2023-03-01T08:04:35;31.25;;;20.00;;
28627;SDS011;15815;46.760;19.604;2023-03-01T08:07:04;28.40;;;18.80;;
28627;SDS011;15815;46.760;19.604;2023-03-01T08:09:30;28.70;;;19.08;;
28627;SDS011;15815;46.760;19.604;2023-03-01T08:11:57;30.15;;;19.08;;
28627;SDS011;15815;46.760;19.604;2023-03-01T08:14:25;30.58;;;17.77;;
28627;SDS011;15815;46.760;19.604;2023-03-01T08:16:51;26.17;;;17.13;;
28627;SDS011;15815;46.760;19.604;2023-03-01T08:19:17;31.35;;;18.60;;
28627;SDS011;15815;46.760;19.604;2023-03-01T08:21:42;28.98;;;18.70;;
28627;SDS011;15815;46.760;19.604;2023-03-01T08:24:08;26.00;;;16.90;;
28627;SDS011;15815;46.760;19.604;2023-03-01T08:26:34;26.70;;;17.75;;
28627;SDS011;15815;46.760;19.604;2023-03-01T08:29:00;26.30;;;17.92;;
28627;SDS011;15815;46.760;19.604;2023-03-01T08:31:27;29.35;;;16.25;;
28627;SDS011;15815;46.760;19.604;2023-03-01T08:34:01;29.65;;;18.55;;
28627;SDS011;15815;46.760;19.604;2023-03-01T08:36:30;29.15;;;18.67;;
28627;SDS011;15815;46.760;19.604;2023-03-01T08:38:57;28.58;;;16.63;;
28627;SDS011;15815;46.760;19.604;2023-03-01T08:41:23;22.73;;;15.38;;
28627;SDS011;15815;46.760;19.604;2023-03-01T08:43:50;23.20;;;15.27;;
28627;SDS011;15815;46.760;19.604;2023-03-01T08:46:15;27.40;;;17.63;;
28627;SDS011;15815;46.760;19.604;2023-03-01T08:48:41;25.20;;;15.45;;
28627;SDS011;15815;46.760;19.604;2023-03-01T08:51:07;31.00;;;20.15;;
28627;SDS011;15815;46.760;19.604;2023-03-01T08:53:38;26.67;;;18.00;;
28627;SDS011;15815;46.760;19.604;2023-03-01T08:56:04;26.45;;;15.77;;
28627;SDS011;15815;46.760;19.604;2023-03-01T08:58:30;24.08;;;13.93;;
28627;SDS011;15815;46.760;19.604;2023-03-01T09:00:57;25.50;;;15.48;;
28627;SDS011;15815;46.760;19.604;2023-03-01T09:03:23;22.02;;;15.00;;
28627;SDS011;15815;46.760;19.604;2023-03-01T09:05:50;24.83;;;15.52;;
28627;SDS011;15815;46.760;19.604;2023-03-01T09:08:16;25.08;;;15.00;;
28627;SDS011;15815;46.760;19.604;2023-03-01T09:10:43;24.98;;;14.68;;
28627;SDS011;15815;46.760;19.604;2023-03-01T09:13:09;23.92;;;15.20;;
28627;SDS011;15815;46.760;19.604;2023-03-01T09:15:38;23.70;;;16.33;;
28627;SDS011;15815;46.760;19.604;2023-03-01T09:18:04;26.42;;;15.85;;
28627;SDS011;15815;46.760;19.604;2023-03-01T09:20:30;26.73;;;14.77;;
28627;SDS011;15815;46.760;19.604;2023-03-01T09:22:58;22.60;;;14.88;;
28627;SDS011;15815;46.760;19.604;2023-03-01T09:25:26;23.50;;;14.75;;
28627;SDS011;15815;46.760;19.604;2023-03-01T09:27:52;28.67;;;15.82;;
28627;SDS011;15815;46.760;19.604;2023-03-01T09:30:19;26.77;;;17.20;;
28627;SDS011;15815;46.760;19.604;2023-03-01T09:32:45;26.38;;;15.63;;
28627;SDS011;15815;46.760;19.604;2023-03-01T09:35:11;23.23;;;16.02;;
28627;SDS011;15815;46.760;19.604;2023-03-01T09:37:37;30.60;;;17.67;;
28627;SDS011;15815;46.760;19.604;2023-03-01T09:40:04;27.25;;;17.25;;
28627;SDS011;15815;46.760;19.604;2023-03-01T09:42:32;23.45;;;15.88;;
28627;SDS011;15815;46.760;19.604;2023-03-01T09:45:01;22.55;;;14.77;;
28627;SDS011;15815;46.760;19.604;2023-03-01T09:47:35;22.60;;;15.30;;
28627;SDS011;15815;46.760;19.604;2023-03-01T09:50:12;24.17;;;16.45;;
28627;SDS011;15815;46.760;19.604;2023-03-01T10:01:10;23.30;;;14.38;;
28627;SDS011;15815;46.760;19.604;2023-03-01T10:09:34;27.05;;;16.20;;
28627;SDS011;15815;46.760;19.604;2023-03-01T10:12:02;24.35;;;14.75;;
28627;SDS011;15815;46.760;19.604;2023-03-01T10:14:36;21.48;;;14.15;;
28627;SDS011;15815;46.760;19.604;2023-03-01T10:17:17;22.33;;;13.60;;
28627;SDS011;15815;46.760;19.604;2023-03-01T10:22:52;19.33;;;14.02;;
28627;SDS011;15815;46.760;19.604;2023-03-01T10:31:07;22.80;;;14.57;;
28627;SDS011;15815;46.760;19.604;2023-03-01T10:33:39;22.52;;;14.60;;
28627;SDS011;15815;46.760;19.604;2023-03-01T10:36:06;22.60;;;15.23;;
28627;SDS011;15815;46.760;19.604;2023-03-01T10:38:46;21.38;;;14.85;;
28627;SDS011;15815;46.760;19.604;2023-03-01T10:41:22;17.38;;;11.80;;
28627;SDS011;15815;46.760;19.604;2023-03-01T10:43:53;22.25;;;14.30;;
28627;SDS011;15815;46.760;19.604;2023-03-01T10:46:34;16.65;;;12.52;;
28627;SDS011;15815;46.760;19.604;2023-03-01T10:49:13;20.35;;;13.25;;
28627;SDS011;15815;46.760;19.604;2023-03-01T10:51:46;25.52;;;16.80;;
28627;SDS011;15815;46.760;19.604;2023-03-01T10:54:23;23.08;;;13.50;;
28627;SDS011;15815;46.760;19.604;2023-03-01T10:56:53;18.40;;;12.35;;
28627;SDS011;15815;46.760;19.604;2023-03-01T10:59:28;22.25;;;14.10;;
28627;SDS011;15815;46.760;19.604;2023-03-01T11:05:01;16.55;;;12.43;;
28627;SDS011;15815;46.760;19.604;2023-03-01T11:07:54;16.65;;;11.63;;
28627;SDS011;15815;46.760;19.604;2023-03-01T11:10:23;18.63;;;13.07;;
28627;SDS011;15815;46.760;19.604;2023-03-01T11:12:49;18.30;;;12.93;;
28627;SDS011;15815;46.760;19.604;2023-03-01T11:15:27;27.08;;;16.85;;
28627;SDS011;15815;46.760;19.604;2023-03-01T11:17:54;44.20;;;22.88;;
28627;SDS011;15815;46.760;19.604;2023-03-01T11:20:25;17.10;;;11.98;;
28627;SDS011;15815;46.760;19.604;2023-03-01T11:23:01;17.35;;;11.52;;
28627;SDS011;15815;46.760;19.604;2023-03-01T11:25:37;15.88;;;11.50;;
28627;SDS011;15815;46.760;19.604;2023-03-01T11:28:07;18.13;;;12.38;;
28627;SDS011;15815;46.760;19.604;2023-03-01T11:31:21;18.35;;;12.07;;
28627;SDS011;15815;46.760;19.604;2023-03-01T11:36:05;22.90;;;13.88;;
28627;SDS011;15815;46.760;19.604;2023-03-01T11:38:38;19.75;;;13.25;;
28627;SDS011;15815;46.760;19.604;2023-03-01T11:43:50;22.65;;;12.98;;
28627;SDS011;15815;46.760;19.604;2023-03-01T11:51:50;25.02;;;15.25;;
28627;SDS011;15815;46.760;19.604;2023-03-01T12:03:23;24.85;;;15.35;;
28627;SDS011;15815;46.760;19.604;2023-03-01T12:06:08;22.15;;;15.10;;
28627;SDS011;15815;46.760;19.604;2023-03-01T12:08:49;19.77;;;13.85;;
28627;SDS011;15815;46.760;19.604;2023-03-01T12:11:29;23.15;;;15.82;;
28627;SDS011;15815;46.760;19.604;2023-03-01T12:49:34;19.75;;;12.90;;
28627;SDS011;15815;46.760;19.604;2023-03-01T12:52:20;16.52;;;12.10;;
28627;SDS011;15815;46.760;19.604;2023-03-01T12:54:54;18.55;;;12.60;;
28627;SDS011;15815;46.760;19.604;2023-03-01T13:09:05;17.48;;;11.02;;
28627;SDS011;15815;46.760;19.604;2023-03-01T13:11:33;14.90;;;10.93;;
28627;SDS011;15815;46.760;19.604;2023-03-01T13:16:46;18.27;;;11.35;;
28627;SDS011;15815;46.760;19.604;2023-03-01T13:19:14;21.02;;;12.07;;
28627;SDS011;15815;46.760;19.604;2023-03-01T13:21:43;20.20;;;13.32;;
28627;SDS011;15815;46.760;19.604;2023-03-01T13:29:49;19.67;;;12.07;;
28627;SDS011;15815;46.760;19.604;2023-03-01T13:37:45;13.95;;;11.05;;
28627;SDS011;15815;46.760;19.604;2023-03-01T13:42:43;14.57;;;10.68;;
28627;SDS011;15815;46.760;19.604;2023-03-01T13:47:44;15.20;;;11.27;;
28627;SDS011;15815;46.760;19.604;2023-03-01T13:51:11;15.00;;;10.90;;
28627;SDS011;15815;46.760;19.604;2023-03-01T13:53:18;20.65;;;12.50;;
28627;SDS011;15815;46.760;19.604;2023-03-01T13:55:47;23.42;;;13.00;;
28627;SDS011;15815;46.760;19.604;2023-03-01T14:01:03;18.67;;;11.38;;
28627;SDS011;15815;46.760;19.604;2023-03-01T14:03:34;17.85;;;12.55;;
28627;SDS011;15815;46.760;19.604;2023-03-01T14:06:08;24.00;;;14.60;;
28627;SDS011;15815;46.760;19.604;2023-03-01T14:08:41;18.00;;;13.57;;
28627;SDS011;15815;46.760;19.604;2023-03-01T14:13:58;17.75;;;10.93;;
28627;SDS011;15815;46.760;19.604;2023-03-01T14:21:46;25.90;;;16.83;;
28627;SDS011;15815;46.760;19.604;2023-03-01T14:24:19;17.77;;;13.32;;
28627;SDS011;15815;46.760;19.604;2023-03-01T14:26:47;20.27;;;12.75;;
28627;SDS011;15815;46.760;19.604;2023-03-01T14:29:27;18.17;;;11.20;;
28627;SDS011;15815;46.760;19.604;2023-03-01T14:32:20;14.85;;;10.40;;
28627;SDS011;15815;46.760;19.604;2023-03-01T14:34:49;14.70;;;10.23;;
28627;SDS011;15815;46.760;19.604;2023-03-01T14:37:20;14.75;;;9.57;;
28627;SDS011;15815;46.760;19.604;2023-03-01T14:39:52;12.35;;;8.90;;
28627;SDS011;15815;46.760;19.604;2023-03-01T14:42:19;21.63;;;13.75;;
28627;SDS011;15815;46.760;19.604;2023-03-01T14:44:47;13.05;;;9.50;;
28627;SDS011;15815;46.760;19.604;2023-03-01T14:47:37;13.43;;;9.38;;
28627;SDS011;15815;46.760;19.604;2023-03-01T14:50:26;13.38;;;9.00;;
28627;SDS011;15815;46.760;19.604;2023-03-01T14:53:03;21.58;;;10.20;;
28627;SDS011;15815;46.760;19.604;2023-03-01T14:55:34;14.60;;;9.10;;
28627;SDS011;15815;46.760;19.604;2023-03-01T14:58:03;25.23;;;11.45;;
28627;SDS011;15815;46.760;19.604;2023-03-01T15:00:37;16.95;;;10.80;;
28627;SDS011;15815;46.760;19.604;2023-03-01T15:03:07;18.50;;;13.10;;
28627;SDS011;15815;46.760;19.604;2023-03-01T15:05:37;22.23;;;11.23;;
28627;SDS011;15815;46.760;19.604;2023-03-01T15:08:06;17.05;;;9.20;;
28627;SDS011;15815;46.760;19.604;2023-03-01T15:10:34;22.98;;;10.98;;
28627;SDS011;15815;46.760;19.604;2023-03-01T15:13:14;23.25;;;14.05;;
28627;SDS011;15815;46.760;19.604;2023-03-01T15:15:47;19.15;;;12.18;;
28627;SDS011;15815;46.760;19.604;2023-03-01T15:18:21;20.40;;;12.65;;
28627;SDS011;15815;46.760;19.604;2023-03-01T15:20:55;13.40;;;8.70;;
28627;SDS011;15815;46.760;19.604;2023-03-01T15:23:30;13.05;;;9.15;;
28627;SDS011;15815;46.760;19.604;2023-03-01T15:25:56;13.52;;;8.40;;
28627;SDS011;15815;46.760;19.604;2023-03-01T15:28:26;17.25;;;9.55;;
28627;SDS011;15815;46.760;19.604;2023-03-01T15:30:58;15.18;;;9.82;;
28627;SDS011;15815;46.760;19.604;2023-03-01T15:33:34;34.60;;;16.70;;
28627;SDS011;15815;46.760;19.604;2023-03-01T15:38:59;14.90;;;9.48;;
28627;SDS011;15815;46.760;19.604;2023-03-01T15:41:29;16.30;;;11.18;;
28627;SDS011;15815;46.760;19.604;2023-03-01T15:43:57;31.73;;;18.77;;
28627;SDS011;15815;46.760;19.604;2023-03-01T15:46:39;30.67;;;18.27;;
28627;SDS011;15815;46.760;19.604;2023-03-01T15:49:24;37.63;;;19.05;;
28627;SDS011;15815;46.760;19.604;2023-03-01T15:51:50;43.00;;;20.85;;
28627;SDS011;15815;46.760;19.604;2023-03-01T15:54:20;36.40;;;19.58;;
28627;SDS011;15815;46.760;19.604;2023-03-01T15:56:48;44.28;;;23.27;;
28627;SDS011;15815;46.760;19.604;2023-03-01T15:59:14;47.85;;;24.10;;
28627;SDS011;15815;46.760;19.604;2023-03-01T16:01:40;44.28;;;24.48;;
28627;SDS011;15815;46.760;19.604;2023-03-01T16:04:06;40.50;;;20.52;;
28627;SDS011;15815;46.760;19.604;2023-03-01T16:06:35;35.40;;;21.60;;
28627;SDS011;15815;46.760;19.604;2023-03-01T16:09:01;29.98;;;17.23;;
28627;SDS011;15815;46.760;19.604;2023-03-01T16:11:27;48.70;;;26.38;;
28627;SDS011;15815;46.760;19.604;2023-03-01T16:13:55;57.90;;;28.95;;
28627;SDS011;15815;46.760;19.604;2023-03-01T16:16:20;70.15;;;32.90;;
28627;SDS011;15815;46.760;19.604;2023-03-01T16:18:46;51.30;;;24.52;;
28627;SDS011;15815;46.760;19.604;2023-03-01T16:21:13;40.53;;;22.45;;
28627;SDS011;15815;46.760;19.604;2023-03-01T16:23:40;36.47;;;20.38;;
28627;SDS011;15815;46.760;19.604;2023-03-01T16:26:05;34.88;;;18.00;;
28627;SDS011;15815;46.760;19.604;2023-03-01T16:28:31;43.08;;;22.85;;
28627;SDS011;15815;46.760;19.604;2023-03-01T16:30:57;43.75;;;22.27;;
28627;SDS011;15815;46.760;19.604;2023-03-01T16:33:24;41.40;;;22.50;;
28627;SDS011;15815;46.760;19.604;2023-03-01T16:35:52;67.20;;;43.38;;
28627;SDS011;15815;46.760;19.604;2023-03-01T16:38:18;63.72;;;33.00;;
28627;SDS011;15815;46.760;19.604;2023-03-01T16:40:47;61.78;;;34.38;;
28627;SDS011;15815;46.760;19.604;2023-03-01T16:43:14;66.30;;;39.97;;